createdAt,value
2022-11-05T00:03:57.978Z,2.15
2022-11-05T00:09:18.325Z,2.13
2022-11-05T00:14:38.337Z,1.90
2022-11-05T00:19:39.733Z,1.65
2022-11-05T00:24:59.802Z,2.22
2022-11-05T00:30:01.109Z,1.90
2022-11-05T00:35:02.435Z,1.80
2022-11-05T00:40:04.470Z,1.90
2022-11-05T00:45:06.274Z,2.45
2022-11-05T00:50:07.832Z,1.95
2022-11-05T00:55:09.247Z,2.22
2022-11-05T01:00:11.812Z,1.60
2022-11-05T01:05:13.440Z,1.77
2022-11-05T01:10:14.830Z,1.80
2022-11-05T01:15:16.791Z,1.77
2022-11-05T01:20:18.266Z,1.90
2022-11-05T01:25:19.666Z,2.35
2022-11-05T01:30:21.304Z,2.00
2022-11-05T01:35:24.549Z,1.80
2022-11-05T01:40:26.056Z,2.15
2022-11-05T01:45:27.943Z,2.00
2022-11-05T01:50:32.107Z,2.17
2022-11-05T01:55:35.390Z,2.22
2022-11-05T02:00:37.557Z,2.17
2022-11-05T02:05:39.828Z,2.15
2022-11-05T02:10:43.000Z,2.40
2022-11-05T02:16:02.387Z,3.03
2022-11-05T02:21:04.085Z,2.13
2022-11-05T02:26:05.397Z,2.20
2022-11-05T02:31:06.748Z,2.20
2022-11-05T02:36:27.089Z,2.53
2022-11-05T02:41:35.847Z,2.13
2022-11-05T02:51:46.344Z,2.33
2022-11-05T02:56:49.733Z,2.80
2022-11-05T03:01:52.196Z,2.30
2022-11-05T03:07:12.444Z,2.47
2022-11-05T03:12:32.202Z,2.88
2022-11-05T03:17:43.593Z,3.30
2022-11-05T03:22:49.504Z,2.30
2022-11-05T03:27:54.247Z,2.00
2022-11-05T03:33:00.489Z,2.20
2022-11-05T03:38:12.008Z,2.00
2022-11-05T03:43:14.333Z,2.15
2022-11-05T03:48:18.008Z,2.15
2022-11-05T03:53:23.120Z,2.47
2022-11-05T03:58:24.847Z,2.30
2022-11-05T04:03:26.207Z,2.40
2022-11-05T04:08:46.096Z,2.30
2022-11-05T04:13:47.477Z,2.65
2022-11-05T04:18:48.805Z,2.35
2022-11-05T04:24:08.317Z,2.28
2022-11-05T04:29:49.266Z,2.00
2022-11-05T04:34:50.650Z,2.10
2022-11-05T04:39:51.992Z,2.25
2022-11-05T04:44:53.376Z,2.47
2022-11-05T04:49:54.681Z,2.10
2022-11-05T04:54:56.072Z,2.25
2022-11-05T04:59:57.645Z,2.10
2022-11-05T05:04:59.027Z,2.00
2022-11-05T05:10:00.919Z,1.90
2022-11-05T05:15:02.567Z,1.92
2022-11-05T05:20:22.810Z,2.10
2022-11-05T05:30:25.597Z,1.98
2022-11-05T05:35:26.919Z,2.22
2022-11-05T05:40:28.343Z,2.15
2022-11-05T05:45:31.023Z,2.03
2022-11-05T05:50:32.417Z,2.00
2022-11-05T05:55:33.795Z,2.33
2022-11-05T06:00:35.520Z,2.45
2022-11-05T06:05:36.905Z,2.30
2022-11-05T06:10:40.289Z,2.47
2022-11-05T06:15:41.711Z,2.17
2022-11-05T06:20:43.111Z,2.20
2022-11-05T06:25:44.452Z,2.40
2022-11-05T06:30:50.419Z,2.30
2022-11-05T06:35:51.976Z,2.30
2022-11-05T06:40:53.390Z,2.00
2022-11-05T06:45:55.228Z,2.47
2022-11-05T06:50:56.763Z,2.60
2022-11-05T06:56:01.314Z,2.33
2022-11-05T07:01:04.220Z,2.63
2022-11-05T07:06:08.730Z,2.45
2022-11-05T07:11:10.076Z,2.50
2022-11-05T07:16:11.621Z,2.47
2022-11-05T07:21:13.121Z,2.58
2022-11-05T07:26:14.518Z,2.20
2022-11-05T07:31:17.492Z,2.13
2022-11-05T07:36:18.807Z,2.40
2022-11-05T07:41:20.131Z,2.30
2022-11-05T07:46:21.559Z,2.30
2022-11-05T07:51:22.938Z,2.20
2022-11-05T07:56:24.583Z,2.35
2022-11-05T08:01:28.291Z,2.50
2022-11-05T08:06:29.851Z,2.10
2022-11-05T08:11:31.298Z,2.58
2022-11-05T08:16:32.615Z,3.50
2022-11-05T08:21:33.923Z,2.65
2022-11-05T08:26:35.280Z,2.55
2022-11-05T08:31:37.139Z,2.88
2022-11-05T08:36:42.031Z,2.33
2022-11-05T08:41:43.456Z,2.70
2022-11-05T08:46:44.829Z,2.58
2022-11-05T08:51:46.254Z,2.40
2022-11-05T08:56:47.649Z,2.55
2022-11-05T09:01:50.572Z,2.22
2022-11-05T09:06:52.093Z,3.00
2022-11-05T09:12:11.859Z,3.20
2022-11-05T09:17:17.785Z,2.85
2022-11-05T09:22:19.116Z,2.80
2022-11-05T09:27:20.463Z,2.40
2022-11-05T09:32:23.224Z,2.63
2022-11-05T09:37:24.622Z,2.28
2022-11-05T09:42:29.603Z,2.28
2022-11-05T09:47:33.235Z,2.25
2022-11-05T09:52:34.607Z,2.42
2022-11-05T09:57:45.295Z,2.00
2022-11-05T10:02:55.549Z,2.67
2022-11-05T10:08:04.524Z,2.45
2022-11-05T10:13:28.161Z,11.73
2022-11-05T10:18:40.259Z,2.60
2022-11-05T10:23:41.911Z,2.28
2022-11-05T10:28:43.288Z,1.80
2022-11-05T10:33:45.997Z,2.35
2022-11-05T10:38:47.483Z,2.58
2022-11-05T10:43:54.375Z,3.67
2022-11-05T10:49:17.642Z,3.30
2022-11-05T10:54:20.751Z,3.10
2022-11-05T10:59:23.508Z,4.20
2022-11-05T11:04:26.165Z,3.97
2022-11-05T11:09:31.934Z,4.07
2022-11-05T11:14:35.096Z,3.45
2022-11-05T11:19:36.676Z,3.65
2022-11-05T11:24:39.082Z,3.60
2022-11-05T11:29:45.157Z,3.88
2022-11-05T11:34:52.807Z,3.70
2022-11-05T11:39:58.867Z,3.50
2022-11-05T11:45:02.826Z,3.65
2022-11-05T11:50:06.879Z,3.55
2022-11-05T11:55:11.118Z,3.90
2022-11-05T12:00:12.829Z,3.45
2022-11-05T12:05:18.048Z,3.33
2022-11-05T12:10:57.879Z,4.07
2022-11-05T12:16:03.777Z,4.05
2022-11-05T12:21:07.062Z,4.03
2022-11-05T12:26:19.514Z,3.70
2022-11-05T12:31:32.574Z,3.92
2022-11-05T12:36:43.443Z,3.60
2022-11-05T12:42:16.889Z,3.60
2022-11-05T12:47:33.332Z,3.30
2022-11-05T12:52:43.537Z,3.22
2022-11-05T12:57:46.466Z,3.28
2022-11-05T13:03:11.368Z,3.45
2022-11-05T13:08:15.846Z,3.45
2022-11-05T13:13:32.018Z,3.00
2022-11-05T13:18:40.249Z,2.67
2022-11-05T13:23:44.565Z,3.17
2022-11-05T13:28:49.675Z,3.10
2022-11-05T13:33:52.269Z,2.70
2022-11-05T13:39:09.376Z,2.63
2022-11-05T13:44:29.334Z,2.90
2022-11-05T13:49:49.551Z,2.35
2022-11-05T13:55:09.729Z,1.95
2022-11-05T14:00:14.564Z,2.60
2022-11-05T14:05:27.659Z,2.30
2022-11-05T14:10:29.030Z,2.10
2022-11-05T14:15:30.965Z,2.10
2022-11-05T14:20:32.302Z,2.10
2022-11-05T14:25:36.397Z,2.50
2022-11-05T14:30:41.237Z,2.92
2022-11-05T14:35:43.290Z,2.03
2022-11-05T14:40:46.026Z,2.60
2022-11-05T14:46:00.770Z,2.50
2022-11-05T14:51:02.283Z,2.90
2022-11-05T14:56:12.906Z,3.08
2022-11-05T15:01:14.308Z,3.20
2022-11-05T15:06:20.318Z,3.28
2022-11-05T15:11:29.524Z,3.90
2022-11-05T15:16:31.937Z,3.80
2022-11-05T15:21:35.557Z,4.13
2022-11-05T15:26:36.945Z,3.90
2022-11-05T15:31:41.252Z,3.63
2022-11-05T15:36:51.767Z,4.03
2022-11-05T15:41:53.157Z,3.85
2022-11-05T15:47:27.122Z,3.38
2022-11-05T15:52:33.459Z,3.72
2022-11-05T15:57:39.306Z,3.15
2022-11-05T16:02:41.944Z,3.78
2022-11-05T16:07:44.472Z,3.05
2022-11-05T16:12:46.150Z,5.40
2022-11-05T16:17:55.699Z,3.33
2022-11-05T16:22:58.523Z,3.53
2022-11-05T16:28:00.302Z,3.22
2022-11-05T16:33:06.116Z,3.38
2022-11-05T16:38:10.230Z,3.50
2022-11-05T16:43:20.132Z,5.13
2022-11-05T16:48:21.727Z,4.47
2022-11-05T16:53:23.079Z,5.50
2022-11-05T16:58:25.874Z,4.80
2022-11-05T17:03:27.259Z,4.78
2022-11-05T17:08:28.639Z,7.38
2022-11-05T17:13:30.632Z,6.22
2022-11-05T17:18:32.027Z,5.60
2022-11-05T17:23:34.399Z,5.30
2022-11-05T17:28:36.256Z,5.22
2022-11-05T17:33:37.660Z,4.93
2022-11-05T17:38:39.183Z,4.90
2022-11-05T17:43:40.943Z,5.88
2022-11-05T17:48:42.878Z,5.85
2022-11-05T17:53:44.620Z,6.30
2022-11-05T17:58:46.024Z,6.00
2022-11-05T18:03:47.415Z,6.15
2022-11-05T18:08:48.791Z,13.13
2022-11-05T18:13:50.238Z,6.13
2022-11-05T18:18:51.640Z,6.43
2022-11-05T18:23:53.282Z,7.20
2022-11-05T18:28:54.733Z,6.35
2022-11-05T18:33:57.700Z,6.38
2022-11-05T18:39:00.041Z,6.70
2022-11-05T18:44:04.233Z,7.30
2022-11-05T18:49:05.766Z,6.93
2022-11-05T18:54:08.132Z,6.30
2022-11-05T18:59:35.071Z,6.43
2022-11-05T19:04:30.907Z,6.22
2022-11-05T19:09:33.382Z,6.22
2022-11-05T19:14:35.194Z,6.85
2022-11-05T19:19:36.710Z,7.47
2022-11-05T19:24:38.199Z,9.05
2022-11-05T19:29:39.556Z,10.18
2022-11-05T19:34:40.940Z,6.97
2022-11-05T19:39:42.388Z,6.75
2022-11-05T19:44:44.441Z,7.22
2022-11-05T19:49:45.736Z,8.55
2022-11-05T19:54:49.810Z,7.85
2022-11-05T19:59:51.223Z,6.43
2022-11-05T20:04:53.186Z,6.82
2022-11-05T20:09:54.535Z,5.97
2022-11-05T20:14:56.107Z,6.53
2022-11-05T20:19:57.555Z,5.80
2022-11-05T20:24:58.986Z,6.22
2022-11-05T20:30:00.343Z,5.75
2022-11-05T20:35:02.613Z,5.63
2022-11-05T20:40:04.209Z,6.15
2022-11-05T20:45:06.215Z,5.57
2022-11-05T20:50:08.068Z,5.45
2022-11-05T20:55:09.684Z,5.40
2022-11-05T21:00:11.834Z,4.80
2022-11-05T21:05:13.300Z,5.53
2022-11-05T21:10:14.683Z,5.20
2022-11-05T21:15:20.201Z,5.00
2022-11-05T21:20:21.602Z,4.60
2022-11-05T21:25:23.081Z,5.40
2022-11-05T21:30:24.466Z,4.70
2022-11-05T21:35:25.909Z,5.22
2022-11-05T21:40:27.273Z,4.90
2022-11-05T21:45:28.896Z,4.63
2022-11-05T21:50:48.807Z,4.97
2022-11-05T21:56:09.089Z,4.95
2022-11-05T22:01:10.507Z,4.90
2022-11-05T22:06:13.148Z,5.25
2022-11-05T22:11:14.534Z,5.25
2022-11-05T22:16:15.896Z,5.03
2022-11-05T22:21:20.283Z,4.90
2022-11-05T22:26:21.650Z,4.93
2022-11-05T22:31:22.991Z,5.05
2022-11-05T22:36:24.462Z,5.20
2022-11-05T22:41:25.939Z,5.00
2022-11-05T22:46:27.406Z,4.50
2022-11-05T22:51:30.330Z,4.63
2022-11-05T22:56:33.041Z,4.55
2022-11-05T23:01:34.623Z,5.00
2022-11-05T23:06:54.616Z,5.43
2022-11-05T23:11:57.353Z,5.40
2022-11-05T23:17:17.703Z,4.93
2022-11-05T23:22:45.842Z,4.95
2022-11-05T23:27:48.667Z,4.70
2022-11-05T23:32:50.612Z,4.72
2022-11-05T23:38:13.642Z,5.40
2022-11-05T23:43:34.593Z,5.07
2022-11-05T23:48:36.808Z,5.00
2022-11-05T23:53:41.651Z,4.80
2022-11-05T23:58:45.582Z,4.82
